sensor_id;sensor_type;location;lat;lon;timestamp;temperature;humidity
67817;DHT22;54614;47.576;7.524;2023-04-01T00:00:59;24.30;53.20
67817;DHT22;54614;47.576;7.524;2023-04-01T00:03:26;24.60;53.40
67817;DHT22;54614;47.576;7.524;2023-04-01T00:05:54;24.20;53.20
67817;DHT22;54614;47.576;7.524;2023-04-01T00:08:21;24.40;53.40
67817;DHT22;54614;47.576;7.524;2023-04-01T00:10:48;24.30;53.10
67817;DHT22;54614;47.576;7.524;2023-04-01T00:13:14;24.30;53.10
67817;DHT22;54614;47.576;7.524;2023-04-01T00:15:40;24.30;53.70
67817;DHT22;54614;47.576;7.524;2023-04-01T00:18:07;24.30;53.40
67817;DHT22;54614;47.576;7.524;2023-04-01T00:20:34;24.40;53.80
67817;DHT22;54614;47.576;7.524;2023-04-01T00:23:00;24.30;52.90
67817;DHT22;54614;47.576;7.524;2023-04-01T00:25:26;24.30;53.50
67817;DHT22;54614;47.576;7.524;2023-04-01T00:27:52;24.30;52.80
67817;DHT22;54614;47.576;7.524;2023-04-01T00:30:18;24.30;53.70
67817;DHT22;54614;47.576;7.524;2023-04-01T00:32:44;24.20;53.20
67817;DHT22;54614;47.576;7.524;2023-04-01T00:35:10;24.30;53.30
67817;DHT22;54614;47.576;7.524;2023-04-01T00:37:38;24.30;53.30
67817;DHT22;54614;47.576;7.524;2023-04-01T00:40:08;24.30;53.40
67817;DHT22;54614;47.576;7.524;2023-04-01T00:42:48;24.20;52.70
67817;DHT22;54614;47.576;7.524;2023-04-01T00:45:28;24.40;53.70
67817;DHT22;54614;47.576;7.524;2023-04-01T00:47:55;24.10;52.70
67817;DHT22;54614;47.576;7.524;2023-04-01T00:50:26;24.50;53.10
67817;DHT22;54614;47.576;7.524;2023-04-01T00:52:55;24.30;53.30
67817;DHT22;54614;47.576;7.524;2023-04-01T00:55:21;24.20;53.00
67817;DHT22;54614;47.576;7.524;2023-04-01T00:57:50;24.20;52.90
67817;DHT22;54614;47.576;7.524;2023-04-01T01:00:18;24.20;53.00
67817;DHT22;54614;47.576;7.524;2023-04-01T01:02:45;24.30;53.70
67817;DHT22;54614;47.576;7.524;2023-04-01T01:05:14;24.20;52.70
67817;DHT22;54614;47.576;7.524;2023-04-01T01:10:38;24.20;53.50
67817;DHT22;54614;47.576;7.524;2023-04-01T01:16:06;24.20;53.40
67817;DHT22;54614;47.576;7.524;2023-04-01T01:19:00;24.20;53.50
67817;DHT22;54614;47.576;7.524;2023-04-01T01:27:29;24.20;53.40
67817;DHT22;54614;47.576;7.524;2023-04-01T01:30:01;24.20;53.50
67817;DHT22;54614;47.576;7.524;2023-04-01T01:33:13;24.10;53.30
67817;DHT22;54614;47.576;7.524;2023-04-01T01:35:59;23.90;53.10
67817;DHT22;54614;47.576;7.524;2023-04-01T01:38:33;24.20;53.10
67817;DHT22;54614;47.576;7.524;2023-04-01T01:41:01;24.10;52.90
67817;DHT22;54614;47.576;7.524;2023-04-01T01:43:39;24.20;52.80
67817;DHT22;54614;47.576;7.524;2023-04-01T01:46:13;24.10;52.50
67817;DHT22;54614;47.576;7.524;2023-04-01T01:48:43;24.20;52.40
67817;DHT22;54614;47.576;7.524;2023-04-01T01:51:11;24.10;53.10
67817;DHT22;54614;47.576;7.524;2023-04-01T01:53:37;24.10;54.50
67817;DHT22;54614;47.576;7.524;2023-04-01T01:56:04;24.20;54.40
67817;DHT22;54614;47.576;7.524;2023-04-01T01:58:40;24.50;54.60
67817;DHT22;54614;47.576;7.524;2023-04-01T02:01:13;24.20;53.70
67817;DHT22;54614;47.576;7.524;2023-04-01T02:03:43;24.30;53.40
67817;DHT22;54614;47.576;7.524;2023-04-01T02:06:14;24.20;53.70
67817;DHT22;54614;47.576;7.524;2023-04-01T02:09:04;24.20;53.40
67817;DHT22;54614;47.576;7.524;2023-04-01T02:12:01;24.20;53.20
67817;DHT22;54614;47.576;7.524;2023-04-01T02:17:27;24.10;53.00
67817;DHT22;54614;47.576;7.524;2023-04-01T02:22:39;24.30;53.40
67817;DHT22;54614;47.576;7.524;2023-04-01T02:25:13;24.30;52.80
67817;DHT22;54614;47.576;7.524;2023-04-01T02:27:44;24.10;53.10
67817;DHT22;54614;47.576;7.524;2023-04-01T02:30:12;24.10;52.90
67817;DHT22;54614;47.576;7.524;2023-04-01T02:32:41;24.10;52.60
67817;DHT22;54614;47.576;7.524;2023-04-01T02:35:10;24.10;52.60
67817;DHT22;54614;47.576;7.524;2023-04-01T02:37:39;24.10;52.60
67817;DHT22;54614;47.576;7.524;2023-04-01T02:40:09;24.20;52.00
67817;DHT22;54614;47.576;7.524;2023-04-01T02:42:38;24.00;51.70
67817;DHT22;54614;47.576;7.524;2023-04-01T02:45:05;24.10;51.90
67817;DHT22;54614;47.576;7.524;2023-04-01T02:47:31;24.10;51.10
67817;DHT22;54614;47.576;7.524;2023-04-01T02:49:57;24.10;51.60
67817;DHT22;54614;47.576;7.524;2023-04-01T02:52:30;24.10;51.40
67817;DHT22;54614;47.576;7.524;2023-04-01T02:54:57;24.10;50.90
67817;DHT22;54614;47.576;7.524;2023-04-01T02:57:24;24.10;50.60
67817;DHT22;54614;47.576;7.524;2023-04-01T02:59:50;24.10;50.50
67817;DHT22;54614;47.576;7.524;2023-04-01T03:02:17;24.10;50.60
67817;DHT22;54614;47.576;7.524;2023-04-01T03:04:43;24.10;50.60
67817;DHT22;54614;47.576;7.524;2023-04-01T03:07:10;24.10;50.80
67817;DHT22;54614;47.576;7.524;2023-04-01T03:09:36;24.00;51.00
67817;DHT22;54614;47.576;7.524;2023-04-01T03:12:03;24.10;50.40
67817;DHT22;54614;47.576;7.524;2023-04-01T03:14:29;24.00;51.00
67817;DHT22;54614;47.576;7.524;2023-04-01T03:16:55;24.20;51.10
67817;DHT22;54614;47.576;7.524;2023-04-01T03:19:21;24.00;50.80
67817;DHT22;54614;47.576;7.524;2023-04-01T03:21:47;24.00;50.70
67817;DHT22;54614;47.576;7.524;2023-04-01T03:24:13;24.00;50.70
67817;DHT22;54614;47.576;7.524;2023-04-01T03:26:39;24.00;51.10
67817;DHT22;54614;47.576;7.524;2023-04-01T03:29:04;24.00;51.20
67817;DHT22;54614;47.576;7.524;2023-04-01T03:31:30;24.00;51.20
67817;DHT22;54614;47.576;7.524;2023-04-01T03:33:56;24.00;51.10
67817;DHT22;54614;47.576;7.524;2023-04-01T03:36:22;24.00;51.50
67817;DHT22;54614;47.576;7.524;2023-04-01T03:38:48;24.00;51.40
67817;DHT22;54614;47.576;7.524;2023-04-01T03:41:15;24.00;51.20
67817;DHT22;54614;47.576;7.524;2023-04-01T03:43:43;24.10;50.90
67817;DHT22;54614;47.576;7.524;2023-04-01T03:46:09;24.20;51.30
67817;DHT22;54614;47.576;7.524;2023-04-01T03:48:35;24.20;51.40
67817;DHT22;54614;47.576;7.524;2023-04-01T03:51:01;24.20;50.90
67817;DHT22;54614;47.576;7.524;2023-04-01T03:53:32;24.00;50.80
67817;DHT22;54614;47.576;7.524;2023-04-01T03:55:58;24.00;51.40
67817;DHT22;54614;47.576;7.524;2023-04-01T03:58:23;24.00;51.20
67817;DHT22;54614;47.576;7.524;2023-04-01T04:00:49;24.10;51.40
67817;DHT22;54614;47.576;7.524;2023-04-01T04:03:15;24.00;51.40
67817;DHT22;54614;47.576;7.524;2023-04-01T04:05:48;24.00;51.30
67817;DHT22;54614;47.576;7.524;2023-04-01T04:08:15;24.00;50.60
67817;DHT22;54614;47.576;7.524;2023-04-01T04:10:42;24.00;50.60
67817;DHT22;54614;47.576;7.524;2023-04-01T04:13:08;24.00;51.00
67817;DHT22;54614;47.576;7.524;2023-04-01T04:15:34;24.00;51.30
67817;DHT22;54614;47.576;7.524;2023-04-01T04:18:00;24.10;51.00
67817;DHT22;54614;47.576;7.524;2023-04-01T04:20:26;23.80;50.80
67817;DHT22;54614;47.576;7.524;2023-04-01T04:22:52;24.00;51.20
67817;DHT22;54614;47.576;7.524;2023-04-01T04:25:17;24.00;51.20
67817;DHT22;54614;47.576;7.524;2023-04-01T04:27:43;24.00;51.10
67817;DHT22;54614;47.576;7.524;2023-04-01T04:30:09;24.10;51.40
67817;DHT22;54614;47.576;7.524;2023-04-01T04:32:35;24.00;50.60
67817;DHT22;54614;47.576;7.524;2023-04-01T04:35:01;24.00;50.80
67817;DHT22;54614;47.576;7.524;2023-04-01T04:37:27;24.00;51.20
67817;DHT22;54614;47.576;7.524;2023-04-01T04:39:53;24.00;51.20
67817;DHT22;54614;47.576;7.524;2023-04-01T04:42:19;24.00;51.00
67817;DHT22;54614;47.576;7.524;2023-04-01T04:44:45;23.90;50.80
67817;DHT22;54614;47.576;7.524;2023-04-01T04:47:11;24.00;50.60
67817;DHT22;54614;47.576;7.524;2023-04-01T04:49:36;24.00;50.60
67817;DHT22;54614;47.576;7.524;2023-04-01T04:52:02;24.00;50.90
67817;DHT22;54614;47.576;7.524;2023-04-01T04:54:29;24.00;50.70
67817;DHT22;54614;47.576;7.524;2023-04-01T04:56:55;24.00;50.90
67817;DHT22;54614;47.576;7.524;2023-04-01T04:59:21;23.90;50.70
67817;DHT22;54614;47.576;7.524;2023-04-01T05:01:47;24.00;50.80
67817;DHT22;54614;47.576;7.524;2023-04-01T05:04:12;24.00;51.30
67817;DHT22;54614;47.576;7.524;2023-04-01T05:06:38;24.00;51.00
67817;DHT22;54614;47.576;7.524;2023-04-01T05:09:04;23.90;51.20
67817;DHT22;54614;47.576;7.524;2023-04-01T05:11:30;23.90;50.90
67817;DHT22;54614;47.576;7.524;2023-04-01T05:13:56;23.90;51.00
67817;DHT22;54614;47.576;7.524;2023-04-01T05:16:22;24.20;51.10
67817;DHT22;54614;47.576;7.524;2023-04-01T05:18:48;23.90;50.90
67817;DHT22;54614;47.576;7.524;2023-04-01T05:21:14;23.80;50.90
67817;DHT22;54614;47.576;7.524;2023-04-01T05:23:41;24.10;50.60
67817;DHT22;54614;47.576;7.524;2023-04-01T05:26:12;23.90;50.80
67817;DHT22;54614;47.576;7.524;2023-04-01T05:28:39;23.90;50.50
67817;DHT22;54614;47.576;7.524;2023-04-01T05:31:06;23.90;50.60
67817;DHT22;54614;47.576;7.524;2023-04-01T05:33:33;24.10;50.70
67817;DHT22;54614;47.576;7.524;2023-04-01T05:36:07;23.90;50.60
67817;DHT22;54614;47.576;7.524;2023-04-01T05:38:38;23.90;50.40
67817;DHT22;54614;47.576;7.524;2023-04-01T05:41:04;23.90;50.60
67817;DHT22;54614;47.576;7.524;2023-04-01T05:43:30;23.90;51.10
67817;DHT22;54614;47.576;7.524;2023-04-01T05:45:57;23.90;50.60
67817;DHT22;54614;47.576;7.524;2023-04-01T05:48:23;24.00;50.60
67817;DHT22;54614;47.576;7.524;2023-04-01T05:50:49;23.90;51.30
67817;DHT22;54614;47.576;7.524;2023-04-01T05:53:14;24.00;51.10
67817;DHT22;54614;47.576;7.524;2023-04-01T05:55:40;24.00;51.30
67817;DHT22;54614;47.576;7.524;2023-04-01T05:58:06;24.00;51.10
67817;DHT22;54614;47.576;7.524;2023-04-01T06:00:32;24.10;51.20
67817;DHT22;54614;47.576;7.524;2023-04-01T06:02:59;24.00;50.90
67817;DHT22;54614;47.576;7.524;2023-04-01T06:05:28;23.80;50.30
67817;DHT22;54614;47.576;7.524;2023-04-01T06:08:04;24.00;50.60
67817;DHT22;54614;47.576;7.524;2023-04-01T06:10:55;24.00;50.60
67817;DHT22;54614;47.576;7.524;2023-04-01T06:16:26;24.00;50.30
67817;DHT22;54614;47.576;7.524;2023-04-01T06:31:08;24.10;50.50
67817;DHT22;54614;47.576;7.524;2023-04-01T06:37:15;23.90;50.40
67817;DHT22;54614;47.576;7.524;2023-04-01T06:56:37;23.80;50.60
67817;DHT22;54614;47.576;7.524;2023-04-01T06:59:12;23.90;50.60
67817;DHT22;54614;47.576;7.524;2023-04-01T07:01:52;23.90;50.60
67817;DHT22;54614;47.576;7.524;2023-04-01T07:07:37;23.80;50.50
67817;DHT22;54614;47.576;7.524;2023-04-01T07:10:15;24.00;50.40
67817;DHT22;54614;47.576;7.524;2023-04-01T07:12:51;23.90;50.40
67817;DHT22;54614;47.576;7.524;2023-04-01T07:15:33;23.80;50.20
67817;DHT22;54614;47.576;7.524;2023-04-01T07:18:32;23.80;50.40
67817;DHT22;54614;47.576;7.524;2023-04-01T07:21:03;23.80;50.70
67817;DHT22;54614;47.576;7.524;2023-04-01T07:23:39;23.80;51.50
67817;DHT22;54614;47.576;7.524;2023-04-01T07:26:22;23.80;50.90
67817;DHT22;54614;47.576;7.524;2023-04-01T07:28:51;23.90;50.90
67817;DHT22;54614;47.576;7.524;2023-04-01T07:34:27;23.80;51.80
67817;DHT22;54614;47.576;7.524;2023-04-01T07:56:37;23.50;56.00
67817;DHT22;54614;47.576;7.524;2023-04-01T08:05:57;24.00;54.30
67817;DHT22;54614;47.576;7.524;2023-04-01T08:08:39;24.10;53.90
67817;DHT22;54614;47.576;7.524;2023-04-01T08:11:35;24.10;52.80
67817;DHT22;54614;47.576;7.524;2023-04-01T08:14:33;24.20;52.70
67817;DHT22;54614;47.576;7.524;2023-04-01T08:25:53;24.20;52.80
67817;DHT22;54614;47.576;7.524;2023-04-01T08:28:36;24.30;52.90
67817;DHT22;54614;47.576;7.524;2023-04-01T08:31:13;24.30;53.00
67817;DHT22;54614;47.576;7.524;2023-04-01T08:33:47;24.30;52.50
67817;DHT22;54614;47.576;7.524;2023-04-01T08:56:26;24.50;52.30
67817;DHT22;54614;47.576;7.524;2023-04-01T09:09:21;24.60;52.30
67817;DHT22;54614;47.576;7.524;2023-04-01T09:15:16;24.60;52.70
67817;DHT22;54614;47.576;7.524;2023-04-01T09:27:44;24.70;52.10
67817;DHT22;54614;47.576;7.524;2023-04-01T09:37:19;24.50;52.40
67817;DHT22;54614;47.576;7.524;2023-04-01T09:39:38;24.50;52.70
67817;DHT22;54614;47.576;7.524;2023-04-01T09:45:23;24.50;52.60
67817;DHT22;54614;47.576;7.524;2023-04-01T09:48:15;24.50;52.50
67817;DHT22;54614;47.576;7.524;2023-04-01T10:39:17;24.50;52.30
67817;DHT22;54614;47.576;7.524;2023-04-01T10:42:09;24.40;52.80
67817;DHT22;54614;47.576;7.524;2023-04-01T11:09:05;24.50;51.60
67817;DHT22;54614;47.576;7.524;2023-04-01T11:31:50;24.50;51.70
67817;DHT22;54614;47.576;7.524;2023-04-01T11:37:15;24.50;52.50
67817;DHT22;54614;47.576;7.524;2023-04-01T11:45:36;24.40;50.40
67817;DHT22;54614;47.576;7.524;2023-04-01T11:48:40;24.30;50.90
67817;DHT22;54614;47.576;7.524;2023-04-01T11:51:21;24.30;51.40
67817;DHT22;54614;47.576;7.524;2023-04-01T11:57:07;24.30;51.60
67817;DHT22;54614;47.576;7.524;2023-04-01T12:03:21;24.10;51.70
67817;DHT22;54614;47.576;7.524;2023-04-01T12:09:12;24.10;51.90
67817;DHT22;54614;47.576;7.524;2023-04-01T12:18:15;24.20;51.30
67817;DHT22;54614;47.576;7.524;2023-04-01T12:29:47;24.50;50.20
67817;DHT22;54614;47.576;7.524;2023-04-01T12:39:41;24.50;49.90
67817;DHT22;54614;47.576;7.524;2023-04-01T12:45:32;24.40;49.80
67817;DHT22;54614;47.576;7.524;2023-04-01T13:15:33;24.40;49.50
67817;DHT22;54614;47.576;7.524;2023-04-01T13:29:21;24.50;49.50
67817;DHT22;54614;47.576;7.524;2023-04-01T13:32:04;24.50;49.50
67817;DHT22;54614;47.576;7.524;2023-04-01T13:35:20;24.40;49.50
67817;DHT22;54614;47.576;7.524;2023-04-01T13:41:19;24.50;49.50
67817;DHT22;54614;47.576;7.524;2023-04-01T13:43:50;24.50;49.60
67817;DHT22;54614;47.576;7.524;2023-04-01T13:46:32;24.50;49.40
67817;DHT22;54614;47.576;7.524;2023-04-01T14:30:16;24.40;49.60
67817;DHT22;54614;47.576;7.524;2023-04-01T14:33:21;24.40;49.00
67817;DHT22;54614;47.576;7.524;2023-04-01T14:36:50;24.40;49.10
67817;DHT22;54614;47.576;7.524;2023-04-01T14:46:18;24.40;49.10
67817;DHT22;54614;47.576;7.524;2023-04-01T14:51:52;24.40;49.20
67817;DHT22;54614;47.576;7.524;2023-04-01T14:54:20;24.40;49.30
67817;DHT22;54614;47.576;7.524;2023-04-01T14:57:23;24.40;49.20
67817;DHT22;54614;47.576;7.524;2023-04-01T15:05:49;24.40;49.30
67817;DHT22;54614;47.576;7.524;2023-04-01T15:08:32;24.40;49.60
67817;DHT22;54614;47.576;7.524;2023-04-01T15:33:00;23.90;53.20
67817;DHT22;54614;47.576;7.524;2023-04-01T15:43:49;23.80;53.40
67817;DHT22;54614;47.576;7.524;2023-04-01T15:46:21;23.80;53.40
67817;DHT22;54614;47.576;7.524;2023-04-01T16:00:25;24.10;52.80
67817;DHT22;54614;47.576;7.524;2023-04-01T16:17:44;24.30;52.20
67817;DHT22;54614;47.576;7.524;2023-04-01T16:20:18;24.40;51.40
67817;DHT22;54614;47.576;7.524;2023-04-01T16:23:04;24.50;51.00
67817;DHT22;54614;47.576;7.524;2023-04-01T16:25:49;24.70;51.40
67817;DHT22;54614;47.576;7.524;2023-04-01T16:28:34;24.60;51.10
67817;DHT22;54614;47.576;7.524;2023-04-01T16:31:07;24.50;51.30
67817;DHT22;54614;47.576;7.524;2023-04-01T16:36:55;24.80;50.30
67817;DHT22;54614;47.576;7.524;2023-04-01T16:42:40;24.80;50.00
67817;DHT22;54614;47.576;7.524;2023-04-01T16:48:15;24.80;49.90
67817;DHT22;54614;47.576;7.524;2023-04-01T16:50:58;24.80;49.90
67817;DHT22;54614;47.576;7.524;2023-04-01T16:53:47;24.80;49.80
67817;DHT22;54614;47.576;7.524;2023-04-01T16:56:23;24.80;49.90
67817;DHT22;54614;47.576;7.524;2023-04-01T16:59:04;24.80;49.60
67817;DHT22;54614;47.576;7.524;2023-04-01T17:02:07;24.80;49.60
67817;DHT22;54614;47.576;7.524;2023-04-01T17:04:48;24.80;49.60
67817;DHT22;54614;47.576;7.524;2023-04-01T17:10:50;24.70;49.50
67817;DHT22;54614;47.576;7.524;2023-04-01T17:21:44;24.70;49.30
67817;DHT22;54614;47.576;7.524;2023-04-01T17:30:38;24.70;49.30
67817;DHT22;54614;47.576;7.524;2023-04-01T17:41:54;24.60;49.10
67817;DHT22;54614;47.576;7.524;2023-04-01T17:56:14;24.50;48.70
67817;DHT22;54614;47.576;7.524;2023-04-01T17:58:59;24.50;49.40
67817;DHT22;54614;47.576;7.524;2023-04-01T18:05:12;24.50;49.70
67817;DHT22;54614;47.576;7.524;2023-04-01T18:13:54;24.00;51.50
67817;DHT22;54614;47.576;7.524;2023-04-01T18:19:32;24.10;51.50
67817;DHT22;54614;47.576;7.524;2023-04-01T18:22:19;24.00;51.70
67817;DHT22;54614;47.576;7.524;2023-04-01T18:27:47;23.90;51.90
67817;DHT22;54614;47.576;7.524;2023-04-01T18:33:03;24.00;52.00
67817;DHT22;54614;47.576;7.524;2023-04-01T18:38:40;24.10;51.80
67817;DHT22;54614;47.576;7.524;2023-04-01T18:41:48;24.30;51.20
67817;DHT22;54614;47.576;7.524;2023-04-01T18:44:55;24.40;51.30
67817;DHT22;54614;47.576;7.524;2023-04-01T18:47:40;24.40;51.50
67817;DHT22;54614;47.576;7.524;2023-04-01T18:50:37;24.50;51.20
67817;DHT22;54614;47.576;7.524;2023-04-01T18:53:19;24.30;51.40
67817;DHT22;54614;47.576;7.524;2023-04-01T18:56:12;24.10;52.00
67817;DHT22;54614;47.576;7.524;2023-04-01T18:58:54;24.20;51.70
67817;DHT22;54614;47.576;7.524;2023-04-01T19:04:39;24.50;51.00
67817;DHT22;54614;47.576;7.524;2023-04-01T19:25:34;24.60;50.50
67817;DHT22;54614;47.576;7.524;2023-04-01T19:41:00;24.80;49.80
67817;DHT22;54614;47.576;7.524;2023-04-01T19:47:37;24.80;49.30
67817;DHT22;54614;47.576;7.524;2023-04-01T19:52:54;24.80;49.70
67817;DHT22;54614;47.576;7.524;2023-04-01T19:55:42;24.80;49.40
67817;DHT22;54614;47.576;7.524;2023-04-01T20:01:30;24.70;49.10
67817;DHT22;54614;47.576;7.524;2023-04-01T20:04:07;24.70;49.20
67817;DHT22;54614;47.576;7.524;2023-04-01T20:06:53;24.70;49.30
67817;DHT22;54614;47.576;7.524;2023-04-01T20:09:51;24.70;49.20
67817;DHT22;54614;47.576;7.524;2023-04-01T20:12:41;24.70;49.20
67817;DHT22;54614;47.576;7.524;2023-04-01T20:17:58;24.60;49.30
67817;DHT22;54614;47.576;7.524;2023-04-01T20:20:31;24.60;49.30
67817;DHT22;54614;47.576;7.524;2023-04-01T20:25:57;24.60;49.30
67817;DHT22;54614;47.576;7.524;2023-04-01T20:31:40;24.50;49.20
67817;DHT22;54614;47.576;7.524;2023-04-01T20:47:01;24.50;49.60
67817;DHT22;54614;47.576;7.524;2023-04-01T20:49:46;24.50;49.70
67817;DHT22;54614;47.576;7.524;2023-04-01T21:03:22;24.40;49.50
67817;DHT22;54614;47.576;7.524;2023-04-01T21:09:09;24.40;49.50
67817;DHT22;54614;47.576;7.524;2023-04-01T21:20:15;24.30;49.60
67817;DHT22;54614;47.576;7.524;2023-04-01T21:34:48;24.20;49.60
67817;DHT22;54614;47.576;7.524;2023-04-01T21:53:33;24.20;49.80
67817;DHT22;54614;47.576;7.524;2023-04-01T21:56:43;24.20;49.70
67817;DHT22;54614;47.576;7.524;2023-04-01T22:06:03;24.10;49.80
67817;DHT22;54614;47.576;7.524;2023-04-01T22:26:04;24.10;49.70
67817;DHT22;54614;47.576;7.524;2023-04-01T22:31:52;24.10;49.80
67817;DHT22;54614;47.576;7.524;2023-04-01T22:34:37;24.10;49.80
67817;DHT22;54614;47.576;7.524;2023-04-01T22:37:19;24.10;49.70
67817;DHT22;54614;47.576;7.524;2023-04-01T22:43:01;24.10;49.70
67817;DHT22;54614;47.576;7.524;2023-04-01T22:51:40;24.10;49.70
67817;DHT22;54614;47.576;7.524;2023-04-01T22:54:14;24.00;49.60
67817;DHT22;54614;47.576;7.524;2023-04-01T22:56:48;24.00;49.60
67817;DHT22;54614;47.576;7.524;2023-04-01T23:02:37;24.00;49.60
67817;DHT22;54614;47.576;7.524;2023-04-01T23:05:10;24.00;49.60
67817;DHT22;54614;47.576;7.524;2023-04-01T23:07:44;24.00;49.60
67817;DHT22;54614;47.576;7.524;2023-04-01T23:10:44;24.00;49.60
67817;DHT22;54614;47.576;7.524;2023-04-01T23:13:24;24.00;49.60
67817;DHT22;54614;47.576;7.524;2023-04-01T23:15:55;24.00;49.60
67817;DHT22;54614;47.576;7.524;2023-04-01T23:18:27;24.00;49.60
67817;DHT22;54614;47.576;7.524;2023-04-01T23:27:09;24.00;50.10
67817;DHT22;54614;47.576;7.524;2023-04-01T23:29:41;24.00;50.10
67817;DHT22;54614;47.576;7.524;2023-04-01T23:32:16;24.00;50.30
67817;DHT22;54614;47.576;7.524;2023-04-01T23:34:52;24.00;50.30
67817;DHT22;54614;47.576;7.524;2023-04-01T23:37:22;24.00;50.40
67817;DHT22;54614;47.576;7.524;2023-04-01T23:39:51;24.00;50.40
67817;DHT22;54614;47.576;7.524;2023-04-01T23:44:45;24.00;50.20
67817;DHT22;54614;47.576;7.524;2023-04-01T23:47:17;24.00;50.00
67817;DHT22;54614;47.576;7.524;2023-04-01T23:49:59;23.90;49.90
67817;DHT22;54614;47.576;7.524;2023-04-01T23:52:36;23.90;49.90
67817;DHT22;54614;47.576;7.524;2023-04-01T23:55:18;23.90;50.50
67817;DHT22;54614;47.576;7.524;2023-04-01T23:58:12;23.90;49.80
